sensor_id;sensor_type;location;lat;lon;timestamp;P1;durP1;ratioP1;P2;durP2;ratioP2
9418;SDS011;4748;50.802;7.132;2023-02-01T00:01:09;13.07;;;3.00;;
9418;SDS011;4748;50.802;7.132;2023-02-01T00:03:34;4.47;;;3.33;;
9418;SDS011;4748;50.802;7.132;2023-02-01T00:06:00;8.07;;;2.47;;
9418;SDS011;4748;50.802;7.132;2023-02-01T00:08:25;6.53;;;2.83;;
9418;SDS011;4748;50.802;7.132;2023-02-01T00:11:00;2.63;;;2.40;;
9418;SDS011;4748;50.802;7.132;2023-02-01T00:13:27;4.23;;;2.63;;
9418;SDS011;4748;50.802;7.132;2023-02-01T00:16:10;5.20;;;2.17;;
9418;SDS011;4748;50.802;7.132;2023-02-01T00:18:38;2.83;;;2.40;;
9418;SDS011;4748;50.802;7.132;2023-02-01T00:21:03;5.60;;;3.20;;
9418;SDS011;4748;50.802;7.132;2023-02-01T00:23:31;3.77;;;2.83;;
9418;SDS011;4748;50.802;7.132;2023-02-01T00:26:01;4.10;;;3.03;;
9418;SDS011;4748;50.802;7.132;2023-02-01T00:28:28;8.93;;;3.67;;
9418;SDS011;4748;50.802;7.132;2023-02-01T00:31:00;13.73;;;3.10;;
9418;SDS011;4748;50.802;7.132;2023-02-01T00:33:26;7.80;;;3.43;;
9418;SDS011;4748;50.802;7.132;2023-02-01T00:35:59;5.67;;;3.00;;
9418;SDS011;4748;50.802;7.132;2023-02-01T00:38:26;3.13;;;2.60;;
9418;SDS011;4748;50.802;7.132;2023-02-01T00:40:52;3.73;;;2.67;;
9418;SDS011;4748;50.802;7.132;2023-02-01T00:43:18;3.40;;;2.07;;
9418;SDS011;4748;50.802;7.132;2023-02-01T00:45:44;6.20;;;3.07;;
9418;SDS011;4748;50.802;7.132;2023-02-01T00:48:10;5.73;;;2.23;;
9418;SDS011;4748;50.802;7.132;2023-02-01T00:50:36;6.07;;;1.60;;
9418;SDS011;4748;50.802;7.132;2023-02-01T00:53:06;2.60;;;1.83;;
9418;SDS011;4748;50.802;7.132;2023-02-01T00:55:31;8.53;;;1.63;;
9418;SDS011;4748;50.802;7.132;2023-02-01T00:57:57;6.37;;;1.97;;
9418;SDS011;4748;50.802;7.132;2023-02-01T01:00:22;3.90;;;1.73;;
9418;SDS011;4748;50.802;7.132;2023-02-01T01:02:47;6.03;;;1.90;;
9418;SDS011;4748;50.802;7.132;2023-02-01T01:05:13;7.47;;;1.90;;
9418;SDS011;4748;50.802;7.132;2023-02-01T01:07:38;14.63;;;2.03;;
9418;SDS011;4748;50.802;7.132;2023-02-01T01:10:04;12.93;;;2.30;;
9418;SDS011;4748;50.802;7.132;2023-02-01T01:12:30;1.87;;;0.90;;
9418;SDS011;4748;50.802;7.132;2023-02-01T01:14:55;2.93;;;1.30;;
9418;SDS011;4748;50.802;7.132;2023-02-01T01:17:20;3.40;;;1.30;;
9418;SDS011;4748;50.802;7.132;2023-02-01T01:19:46;10.23;;;1.33;;
9418;SDS011;4748;50.802;7.132;2023-02-01T01:22:11;4.87;;;1.47;;
9418;SDS011;4748;50.802;7.132;2023-02-01T01:24:36;2.00;;;1.03;;
9418;SDS011;4748;50.802;7.132;2023-02-01T01:27:01;6.93;;;1.40;;
9418;SDS011;4748;50.802;7.132;2023-02-01T01:29:27;4.57;;;0.90;;
9418;SDS011;4748;50.802;7.132;2023-02-01T01:31:53;5.10;;;1.37;;
9418;SDS011;4748;50.802;7.132;2023-02-01T01:34:18;5.57;;;1.83;;
9418;SDS011;4748;50.802;7.132;2023-02-01T01:36:43;5.90;;;1.60;;
9418;SDS011;4748;50.802;7.132;2023-02-01T01:39:09;0.93;;;0.60;;
9418;SDS011;4748;50.802;7.132;2023-02-01T01:41:34;5.20;;;0.93;;
9418;SDS011;4748;50.802;7.132;2023-02-01T01:44:01;8.47;;;0.80;;
9418;SDS011;4748;50.802;7.132;2023-02-01T01:46:28;0.73;;;0.60;;
9418;SDS011;4748;50.802;7.132;2023-02-01T01:51:44;4.17;;;0.60;;
9418;SDS011;4748;50.802;7.132;2023-02-01T01:54:18;4.33;;;0.97;;
9418;SDS011;4748;50.802;7.132;2023-02-01T01:56:46;2.00;;;0.83;;
9418;SDS011;4748;50.802;7.132;2023-02-01T01:59:15;1.47;;;0.50;;
9418;SDS011;4748;50.802;7.132;2023-02-01T02:01:41;10.37;;;0.90;;
9418;SDS011;4748;50.802;7.132;2023-02-01T02:04:07;2.00;;;1.03;;
9418;SDS011;4748;50.802;7.132;2023-02-01T02:06:43;0.97;;;0.80;;
9418;SDS011;4748;50.802;7.132;2023-02-01T02:09:13;3.53;;;0.90;;
9418;SDS011;4748;50.802;7.132;2023-02-01T02:11:39;2.57;;;0.70;;
9418;SDS011;4748;50.802;7.132;2023-02-01T02:14:05;2.50;;;0.80;;
9418;SDS011;4748;50.802;7.132;2023-02-01T02:39:06;8.60;;;0.83;;
9418;SDS011;4748;50.802;7.132;2023-02-01T02:48:42;8.50;;;1.07;;
9418;SDS011;4748;50.802;7.132;2023-02-01T02:50:52;4.37;;;1.27;;
9418;SDS011;4748;50.802;7.132;2023-02-01T02:54:17;1.73;;;0.63;;
9418;SDS011;4748;50.802;7.132;2023-02-01T02:57:06;3.23;;;1.00;;
9418;SDS011;4748;50.802;7.132;2023-02-01T02:59:52;5.60;;;1.23;;
9418;SDS011;4748;50.802;7.132;2023-02-01T03:02:39;2.97;;;1.00;;
9418;SDS011;4748;50.802;7.132;2023-02-01T03:05:24;6.03;;;0.80;;
9418;SDS011;4748;50.802;7.132;2023-02-01T03:12:48;5.00;;;0.97;;
9418;SDS011;4748;50.802;7.132;2023-02-01T03:15:21;9.37;;;1.17;;
9418;SDS011;4748;50.802;7.132;2023-02-01T03:17:51;6.80;;;1.53;;
9418;SDS011;4748;50.802;7.132;2023-02-01T03:20:20;0.30;;;0.30;;
9418;SDS011;4748;50.802;7.132;2023-02-01T03:22:47;8.97;;;1.00;;
9418;SDS011;4748;50.802;7.132;2023-02-01T03:25:23;5.37;;;1.17;;
9418;SDS011;4748;50.802;7.132;2023-02-01T03:27:53;2.30;;;0.90;;
9418;SDS011;4748;50.802;7.132;2023-02-01T03:30:28;4.87;;;1.23;;
9418;SDS011;4748;50.802;7.132;2023-02-01T03:33:00;6.03;;;1.27;;
9418;SDS011;4748;50.802;7.132;2023-02-01T03:44:04;3.50;;;1.07;;
9418;SDS011;4748;50.802;7.132;2023-02-01T03:46:34;2.20;;;0.70;;
9418;SDS011;4748;50.802;7.132;2023-02-01T03:49:07;5.57;;;0.87;;
9418;SDS011;4748;50.802;7.132;2023-02-01T03:51:36;4.67;;;1.03;;
9418;SDS011;4748;50.802;7.132;2023-02-01T03:54:05;2.93;;;0.90;;
9418;SDS011;4748;50.802;7.132;2023-02-01T03:56:33;2.17;;;1.30;;
9418;SDS011;4748;50.802;7.132;2023-02-01T03:59:02;12.93;;;1.50;;
9418;SDS011;4748;50.802;7.132;2023-02-01T04:01:29;6.30;;;0.97;;
9418;SDS011;4748;50.802;7.132;2023-02-01T04:03:55;1.87;;;0.77;;
9418;SDS011;4748;50.802;7.132;2023-02-01T04:06:22;6.63;;;0.60;;
9418;SDS011;4748;50.802;7.132;2023-02-01T04:08:48;3.60;;;0.97;;
9418;SDS011;4748;50.802;7.132;2023-02-01T04:11:13;2.20;;;1.43;;
9418;SDS011;4748;50.802;7.132;2023-02-01T04:13:38;9.13;;;1.50;;
9418;SDS011;4748;50.802;7.132;2023-02-01T04:16:04;4.43;;;0.80;;
9418;SDS011;4748;50.802;7.132;2023-02-01T04:18:30;2.47;;;0.60;;
9418;SDS011;4748;50.802;7.132;2023-02-01T04:20:55;7.13;;;1.10;;
9418;SDS011;4748;50.802;7.132;2023-02-01T04:23:20;7.30;;;0.37;;
9418;SDS011;4748;50.802;7.132;2023-02-01T04:25:46;7.90;;;1.60;;
9418;SDS011;4748;50.802;7.132;2023-02-01T04:28:11;3.53;;;1.27;;
9418;SDS011;4748;50.802;7.132;2023-02-01T04:30:37;1.33;;;0.60;;
9418;SDS011;4748;50.802;7.132;2023-02-01T04:33:02;1.07;;;0.90;;
9418;SDS011;4748;50.802;7.132;2023-02-01T04:35:31;1.93;;;0.50;;
9418;SDS011;4748;50.802;7.132;2023-02-01T04:37:56;0.63;;;0.60;;
9418;SDS011;4748;50.802;7.132;2023-02-01T04:40:22;1.00;;;0.70;;
9418;SDS011;4748;50.802;7.132;2023-02-01T04:42:47;4.70;;;0.83;;
9418;SDS011;4748;50.802;7.132;2023-02-01T04:45:12;1.70;;;0.97;;
9418;SDS011;4748;50.802;7.132;2023-02-01T04:47:38;7.07;;;2.13;;
9418;SDS011;4748;50.802;7.132;2023-02-01T04:50:04;4.03;;;0.77;;
9418;SDS011;4748;50.802;7.132;2023-02-01T04:52:30;31.20;;;1.73;;
9418;SDS011;4748;50.802;7.132;2023-02-01T04:54:56;4.60;;;1.87;;
9418;SDS011;4748;50.802;7.132;2023-02-01T04:57:24;3.90;;;0.97;;
9418;SDS011;4748;50.802;7.132;2023-02-01T04:59:49;0.63;;;0.63;;
9418;SDS011;4748;50.802;7.132;2023-02-01T05:02:14;6.30;;;1.23;;
9418;SDS011;4748;50.802;7.132;2023-02-01T05:04:40;4.53;;;2.10;;
9418;SDS011;4748;50.802;7.132;2023-02-01T05:07:05;1.00;;;0.90;;
9418;SDS011;4748;50.802;7.132;2023-02-01T05:09:30;5.20;;;1.33;;
9418;SDS011;4748;50.802;7.132;2023-02-01T05:11:56;8.53;;;2.13;;
9418;SDS011;4748;50.802;7.132;2023-02-01T05:14:40;6.93;;;1.07;;
9418;SDS011;4748;50.802;7.132;2023-02-01T05:17:05;8.43;;;1.50;;
9418;SDS011;4748;50.802;7.132;2023-02-01T05:19:30;1.80;;;0.60;;
9418;SDS011;4748;50.802;7.132;2023-02-01T05:21:56;5.87;;;1.20;;
9418;SDS011;4748;50.802;7.132;2023-02-01T05:24:21;8.03;;;1.20;;
9418;SDS011;4748;50.802;7.132;2023-02-01T05:26:47;5.43;;;1.20;;
9418;SDS011;4748;50.802;7.132;2023-02-01T05:29:13;12.83;;;1.37;;
9418;SDS011;4748;50.802;7.132;2023-02-01T05:31:39;5.60;;;1.10;;
9418;SDS011;4748;50.802;7.132;2023-02-01T05:34:05;1.83;;;1.53;;
9418;SDS011;4748;50.802;7.132;2023-02-01T05:36:31;4.17;;;1.03;;
9418;SDS011;4748;50.802;7.132;2023-02-01T05:38:56;4.03;;;1.43;;
9418;SDS011;4748;50.802;7.132;2023-02-01T05:41:22;13.60;;;1.67;;
9418;SDS011;4748;50.802;7.132;2023-02-01T05:43:47;5.47;;;1.53;;
9418;SDS011;4748;50.802;7.132;2023-02-01T05:46:13;5.57;;;1.10;;
9418;SDS011;4748;50.802;7.132;2023-02-01T05:48:39;2.40;;;1.50;;
9418;SDS011;4748;50.802;7.132;2023-02-01T05:51:05;12.50;;;0.87;;
9418;SDS011;4748;50.802;7.132;2023-02-01T05:53:30;5.13;;;1.87;;
9418;SDS011;4748;50.802;7.132;2023-02-01T05:55:55;1.97;;;0.87;;
9418;SDS011;4748;50.802;7.132;2023-02-01T05:58:21;2.00;;;0.50;;
9418;SDS011;4748;50.802;7.132;2023-02-01T06:00:46;2.70;;;0.87;;
9418;SDS011;4748;50.802;7.132;2023-02-01T06:03:11;2.33;;;1.17;;
9418;SDS011;4748;50.802;7.132;2023-02-01T06:05:37;2.00;;;1.43;;
9418;SDS011;4748;50.802;7.132;2023-02-01T06:08:02;3.03;;;1.00;;
9418;SDS011;4748;50.802;7.132;2023-02-01T06:10:27;1.03;;;0.87;;
9418;SDS011;4748;50.802;7.132;2023-02-01T06:12:53;2.57;;;0.50;;
9418;SDS011;4748;50.802;7.132;2023-02-01T06:15:18;11.20;;;0.80;;
9418;SDS011;4748;50.802;7.132;2023-02-01T06:17:44;1.83;;;0.47;;
9418;SDS011;4748;50.802;7.132;2023-02-01T06:20:11;1.23;;;0.23;;
9418;SDS011;4748;50.802;7.132;2023-02-01T06:22:37;2.10;;;1.00;;
9418;SDS011;4748;50.802;7.132;2023-02-01T06:25:04;6.00;;;0.70;;
9418;SDS011;4748;50.802;7.132;2023-02-01T06:27:30;3.60;;;0.93;;
9418;SDS011;4748;50.802;7.132;2023-02-01T06:29:56;11.87;;;1.27;;
9418;SDS011;4748;50.802;7.132;2023-02-01T06:32:22;4.93;;;1.00;;
9418;SDS011;4748;50.802;7.132;2023-02-01T06:34:48;1.83;;;0.73;;
9418;SDS011;4748;50.802;7.132;2023-02-01T06:37:14;10.47;;;1.80;;
9418;SDS011;4748;50.802;7.132;2023-02-01T06:39:39;14.67;;;1.17;;
9418;SDS011;4748;50.802;7.132;2023-02-01T06:42:04;1.27;;;0.73;;
9418;SDS011;4748;50.802;7.132;2023-02-01T06:44:30;13.23;;;1.90;;
9418;SDS011;4748;50.802;7.132;2023-02-01T06:46:55;3.33;;;0.60;;
9418;SDS011;4748;50.802;7.132;2023-02-01T06:49:21;11.03;;;0.90;;
9418;SDS011;4748;50.802;7.132;2023-02-01T06:51:47;2.30;;;0.30;;
9418;SDS011;4748;50.802;7.132;2023-02-01T06:54:12;4.47;;;0.40;;
9418;SDS011;4748;50.802;7.132;2023-02-01T06:56:38;1.60;;;0.30;;
9418;SDS011;4748;50.802;7.132;2023-02-01T06:59:07;1.13;;;0.57;;
9418;SDS011;4748;50.802;7.132;2023-02-01T07:01:32;7.30;;;1.10;;
9418;SDS011;4748;50.802;7.132;2023-02-01T07:03:58;1.70;;;1.60;;
9418;SDS011;4748;50.802;7.132;2023-02-01T07:06:24;1.37;;;0.50;;
9418;SDS011;4748;50.802;7.132;2023-02-01T07:08:49;8.97;;;1.40;;
9418;SDS011;4748;50.802;7.132;2023-02-01T07:11:16;5.17;;;0.83;;
9418;SDS011;4748;50.802;7.132;2023-02-01T07:13:42;1.70;;;0.80;;
9418;SDS011;4748;50.802;7.132;2023-02-01T07:16:12;7.63;;;1.20;;
9418;SDS011;4748;50.802;7.132;2023-02-01T07:18:42;0.70;;;0.10;;
9418;SDS011;4748;50.802;7.132;2023-02-01T07:21:07;5.20;;;0.73;;
9418;SDS011;4748;50.802;7.132;2023-02-01T07:23:33;6.70;;;0.97;;
9418;SDS011;4748;50.802;7.132;2023-02-01T07:26:00;0.77;;;0.43;;
9418;SDS011;4748;50.802;7.132;2023-02-01T07:28:28;5.90;;;1.33;;
9418;SDS011;4748;50.802;7.132;2023-02-01T07:30:55;5.17;;;1.43;;
9418;SDS011;4748;50.802;7.132;2023-02-01T07:33:30;4.90;;;0.50;;
9418;SDS011;4748;50.802;7.132;2023-02-01T07:35:55;1.50;;;0.70;;
9418;SDS011;4748;50.802;7.132;2023-02-01T07:38:21;3.10;;;0.77;;
9418;SDS011;4748;50.802;7.132;2023-02-01T07:40:48;7.70;;;0.70;;
9418;SDS011;4748;50.802;7.132;2023-02-01T07:43:14;10.10;;;0.93;;
9418;SDS011;4748;50.802;7.132;2023-02-01T07:45:39;5.23;;;0.60;;
9418;SDS011;4748;50.802;7.132;2023-02-01T07:48:04;10.57;;;0.63;;
9418;SDS011;4748;50.802;7.132;2023-02-01T07:50:30;0.67;;;0.40;;
9418;SDS011;4748;50.802;7.132;2023-02-01T07:52:58;3.77;;;0.67;;
9418;SDS011;4748;50.802;7.132;2023-02-01T07:55:26;5.00;;;0.60;;
9418;SDS011;4748;50.802;7.132;2023-02-01T07:57:52;1.47;;;0.57;;
9418;SDS011;4748;50.802;7.132;2023-02-01T08:00:17;3.83;;;1.00;;
9418;SDS011;4748;50.802;7.132;2023-02-01T08:03:03;2.87;;;0.37;;
9418;SDS011;4748;50.802;7.132;2023-02-01T08:05:29;6.47;;;0.70;;
9418;SDS011;4748;50.802;7.132;2023-02-01T08:07:54;14.90;;;1.07;;
9418;SDS011;4748;50.802;7.132;2023-02-01T08:10:20;1.20;;;0.53;;
9418;SDS011;4748;50.802;7.132;2023-02-01T08:12:45;6.30;;;1.27;;
9418;SDS011;4748;50.802;7.132;2023-02-01T08:15:16;4.83;;;0.90;;
9418;SDS011;4748;50.802;7.132;2023-02-01T08:17:46;10.30;;;2.53;;
9418;SDS011;4748;50.802;7.132;2023-02-01T08:20:15;21.23;;;1.17;;
9418;SDS011;4748;50.802;7.132;2023-02-01T08:22:42;3.40;;;0.83;;
9418;SDS011;4748;50.802;7.132;2023-02-01T08:25:07;6.63;;;1.27;;
9418;SDS011;4748;50.802;7.132;2023-02-01T08:27:33;2.30;;;0.60;;
9418;SDS011;4748;50.802;7.132;2023-02-01T08:29:59;6.67;;;0.93;;
9418;SDS011;4748;50.802;7.132;2023-02-01T08:32:25;1.83;;;0.90;;
9418;SDS011;4748;50.802;7.132;2023-02-01T08:34:51;6.03;;;0.67;;
9418;SDS011;4748;50.802;7.132;2023-02-01T08:37:16;8.30;;;0.77;;
9418;SDS011;4748;50.802;7.132;2023-02-01T08:39:41;1.60;;;1.50;;
9418;SDS011;4748;50.802;7.132;2023-02-01T08:42:09;3.03;;;0.90;;
9418;SDS011;4748;50.802;7.132;2023-02-01T08:44:53;2.00;;;0.50;;
9418;SDS011;4748;50.802;7.132;2023-02-01T08:47:18;13.83;;;1.30;;
9418;SDS011;4748;50.802;7.132;2023-02-01T08:49:44;3.67;;;0.80;;
9418;SDS011;4748;50.802;7.132;2023-02-01T08:52:09;11.77;;;1.23;;
9418;SDS011;4748;50.802;7.132;2023-02-01T08:54:34;0.87;;;0.37;;
9418;SDS011;4748;50.802;7.132;2023-02-01T08:57:00;6.93;;;1.20;;
9418;SDS011;4748;50.802;7.132;2023-02-01T08:59:25;1.03;;;0.53;;
9418;SDS011;4748;50.802;7.132;2023-02-01T09:01:50;12.57;;;1.03;;
9418;SDS011;4748;50.802;7.132;2023-02-01T09:04:16;7.83;;;1.33;;
9418;SDS011;4748;50.802;7.132;2023-02-01T09:06:41;1.93;;;0.60;;
9418;SDS011;4748;50.802;7.132;2023-02-01T09:09:06;3.73;;;0.43;;
9418;SDS011;4748;50.802;7.132;2023-02-01T09:11:32;8.80;;;1.33;;
9418;SDS011;4748;50.802;7.132;2023-02-01T09:13:57;2.33;;;0.53;;
9418;SDS011;4748;50.802;7.132;2023-02-01T09:16:22;0.17;;;0.17;;
9418;SDS011;4748;50.802;7.132;2023-02-01T09:18:48;7.90;;;1.50;;
9418;SDS011;4748;50.802;7.132;2023-02-01T09:21:13;6.77;;;0.73;;
9418;SDS011;4748;50.802;7.132;2023-02-01T09:23:38;2.70;;;1.10;;
9418;SDS011;4748;50.802;7.132;2023-02-01T09:26:04;1.40;;;0.70;;
9418;SDS011;4748;50.802;7.132;2023-02-01T09:28:30;1.53;;;0.27;;
9418;SDS011;4748;50.802;7.132;2023-02-01T09:30:59;0.07;;;0.07;;
9418;SDS011;4748;50.802;7.132;2023-02-01T09:33:26;3.20;;;0.97;;
9418;SDS011;4748;50.802;7.132;2023-02-01T09:35:56;9.13;;;1.03;;
9418;SDS011;4748;50.802;7.132;2023-02-01T09:38:26;5.30;;;0.87;;
9418;SDS011;4748;50.802;7.132;2023-02-01T09:40:52;4.23;;;0.90;;
9418;SDS011;4748;50.802;7.132;2023-02-01T09:43:37;4.27;;;0.77;;
9418;SDS011;4748;50.802;7.132;2023-02-01T09:46:21;2.63;;;0.33;;
9418;SDS011;4748;50.802;7.132;2023-02-01T09:48:55;1.77;;;0.97;;
9418;SDS011;4748;50.802;7.132;2023-02-01T09:54:23;4.00;;;0.90;;
9418;SDS011;4748;50.802;7.132;2023-02-01T09:56:56;14.17;;;1.00;;
9418;SDS011;4748;50.802;7.132;2023-02-01T10:02:05;16.53;;;1.80;;
9418;SDS011;4748;50.802;7.132;2023-02-01T10:04:40;0.10;;;0.10;;
9418;SDS011;4748;50.802;7.132;2023-02-01T10:18:29;0.30;;;0.30;;
9418;SDS011;4748;50.802;7.132;2023-02-01T10:26:51;3.50;;;1.37;;
9418;SDS011;4748;50.802;7.132;2023-02-01T10:29:37;6.13;;;1.40;;
9418;SDS011;4748;50.802;7.132;2023-02-01T10:32:11;2.70;;;0.50;;
9418;SDS011;4748;50.802;7.132;2023-02-01T10:34:39;1.50;;;0.87;;
9418;SDS011;4748;50.802;7.132;2023-02-01T10:37:20;2.90;;;0.50;;
9418;SDS011;4748;50.802;7.132;2023-02-01T10:39:49;5.13;;;0.43;;
9418;SDS011;4748;50.802;7.132;2023-02-01T10:42:19;0.87;;;0.43;;
9418;SDS011;4748;50.802;7.132;2023-02-01T10:44:50;5.83;;;0.90;;
9418;SDS011;4748;50.802;7.132;2023-02-01T10:47:15;13.33;;;1.03;;
9418;SDS011;4748;50.802;7.132;2023-02-01T10:52:22;1.70;;;0.60;;
9418;SDS011;4748;50.802;7.132;2023-02-01T10:55:20;5.37;;;0.77;;
9418;SDS011;4748;50.802;7.132;2023-02-01T10:58:06;1.97;;;0.40;;
9418;SDS011;4748;50.802;7.132;2023-02-01T11:00:42;13.50;;;0.97;;
9418;SDS011;4748;50.802;7.132;2023-02-01T11:03:20;3.40;;;0.60;;
9418;SDS011;4748;50.802;7.132;2023-02-01T11:05:53;2.47;;;0.93;;
9418;SDS011;4748;50.802;7.132;2023-02-01T11:08:20;4.23;;;0.80;;
9418;SDS011;4748;50.802;7.132;2023-02-01T11:10:46;3.00;;;0.57;;
9418;SDS011;4748;50.802;7.132;2023-02-01T11:13:13;4.33;;;1.63;;
9418;SDS011;4748;50.802;7.132;2023-02-01T11:15:43;7.53;;;0.70;;
9418;SDS011;4748;50.802;7.132;2023-02-01T11:18:17;3.40;;;0.83;;
9418;SDS011;4748;50.802;7.132;2023-02-01T11:20:44;11.53;;;0.70;;
9418;SDS011;4748;50.802;7.132;2023-02-01T11:23:18;7.30;;;1.93;;
9418;SDS011;4748;50.802;7.132;2023-02-01T11:25:53;11.43;;;1.60;;
9418;SDS011;4748;50.802;7.132;2023-02-01T11:28:21;9.13;;;0.60;;
9418;SDS011;4748;50.802;7.132;2023-02-01T11:30:49;6.93;;;1.07;;
9418;SDS011;4748;50.802;7.132;2023-02-01T11:33:19;11.13;;;1.50;;
9418;SDS011;4748;50.802;7.132;2023-02-01T11:35:49;9.20;;;1.17;;
9418;SDS011;4748;50.802;7.132;2023-02-01T11:38:27;1.83;;;0.80;;
9418;SDS011;4748;50.802;7.132;2023-02-01T11:43:53;4.13;;;1.17;;
9418;SDS011;4748;50.802;7.132;2023-02-01T11:46:29;1.90;;;1.10;;
9418;SDS011;4748;50.802;7.132;2023-02-01T11:49:13;2.17;;;0.63;;
9418;SDS011;4748;50.802;7.132;2023-02-01T11:51:54;4.63;;;0.60;;
9418;SDS011;4748;50.802;7.132;2023-02-01T11:57:39;2.17;;;0.93;;
9418;SDS011;4748;50.802;7.132;2023-02-01T12:09:09;0.33;;;0.33;;
9418;SDS011;4748;50.802;7.132;2023-02-01T12:14:44;5.63;;;1.20;;
9418;SDS011;4748;50.802;7.132;2023-02-01T12:22:45;2.30;;;0.50;;
9418;SDS011;4748;50.802;7.132;2023-02-01T12:25:16;1.27;;;0.50;;
9418;SDS011;4748;50.802;7.132;2023-02-01T12:28:02;4.37;;;0.47;;
9418;SDS011;4748;50.802;7.132;2023-02-01T12:34:41;16.03;;;1.60;;
9418;SDS011;4748;50.802;7.132;2023-02-01T12:36:44;6.00;;;1.10;;
9418;SDS011;4748;50.802;7.132;2023-02-01T12:44:59;7.17;;;1.60;;
9418;SDS011;4748;50.802;7.132;2023-02-01T12:47:42;2.50;;;0.93;;
9418;SDS011;4748;50.802;7.132;2023-02-01T12:50:33;0.43;;;0.43;;
9418;SDS011;4748;50.802;7.132;2023-02-01T12:53:09;2.83;;;0.60;;
9418;SDS011;4748;50.802;7.132;2023-02-01T12:55:47;7.13;;;0.60;;
9418;SDS011;4748;50.802;7.132;2023-02-01T12:58:20;0.67;;;0.40;;
9418;SDS011;4748;50.802;7.132;2023-02-01T13:00:52;1.13;;;0.50;;
9418;SDS011;4748;50.802;7.132;2023-02-01T13:03:50;6.23;;;0.77;;
9418;SDS011;4748;50.802;7.132;2023-02-01T13:06:37;0.43;;;0.40;;
9418;SDS011;4748;50.802;7.132;2023-02-01T13:09:17;1.90;;;0.50;;
9418;SDS011;4748;50.802;7.132;2023-02-01T13:11:49;5.83;;;0.40;;
9418;SDS011;4748;50.802;7.132;2023-02-01T13:17:04;7.70;;;0.50;;
9418;SDS011;4748;50.802;7.132;2023-02-01T13:22:22;2.80;;;0.50;;
9418;SDS011;4748;50.802;7.132;2023-02-01T13:24:52;3.50;;;1.00;;
9418;SDS011;4748;50.802;7.132;2023-02-01T13:27:21;4.60;;;0.70;;
9418;SDS011;4748;50.802;7.132;2023-02-01T13:29:53;8.83;;;1.37;;
9418;SDS011;4748;50.802;7.132;2023-02-01T13:38:33;6.00;;;1.20;;
9418;SDS011;4748;50.802;7.132;2023-02-01T13:41:35;2.73;;;0.60;;
9418;SDS011;4748;50.802;7.132;2023-02-01T13:43:56;4.53;;;0.77;;
9418;SDS011;4748;50.802;7.132;2023-02-01T13:46:24;2.67;;;0.80;;
9418;SDS011;4748;50.802;7.132;2023-02-01T13:48:52;4.40;;;0.73;;
9418;SDS011;4748;50.802;7.132;2023-02-01T13:51:37;7.57;;;0.80;;
9418;SDS011;4748;50.802;7.132;2023-02-01T13:54:07;1.60;;;0.40;;
9418;SDS011;4748;50.802;7.132;2023-02-01T13:56:51;5.60;;;1.10;;
9418;SDS011;4748;50.802;7.132;2023-02-01T14:05:00;3.13;;;0.67;;
9418;SDS011;4748;50.802;7.132;2023-02-01T14:07:26;16.57;;;0.60;;
9418;SDS011;4748;50.802;7.132;2023-02-01T14:09:51;4.23;;;0.80;;
9418;SDS011;4748;50.802;7.132;2023-02-01T14:15:17;9.63;;;0.70;;
9418;SDS011;4748;50.802;7.132;2023-02-01T14:17:46;0.87;;;0.60;;
9418;SDS011;4748;50.802;7.132;2023-02-01T14:23:14;2.70;;;1.10;;
9418;SDS011;4748;50.802;7.132;2023-02-01T14:25:42;4.80;;;0.53;;
9418;SDS011;4748;50.802;7.132;2023-02-01T14:28:17;8.30;;;0.47;;
9418;SDS011;4748;50.802;7.132;2023-02-01T14:30:49;0.77;;;0.40;;
9418;SDS011;4748;50.802;7.132;2023-02-01T14:33:22;4.83;;;0.70;;
9418;SDS011;4748;50.802;7.132;2023-02-01T14:36:07;5.07;;;0.80;;
9418;SDS011;4748;50.802;7.132;2023-02-01T14:38:37;3.97;;;0.53;;
9418;SDS011;4748;50.802;7.132;2023-02-01T14:44:36;0.30;;;0.23;;
9418;SDS011;4748;50.802;7.132;2023-02-01T14:49:56;2.57;;;0.27;;
9418;SDS011;4748;50.802;7.132;2023-02-01T14:52:44;1.87;;;0.80;;
9418;SDS011;4748;50.802;7.132;2023-02-01T14:57:52;4.23;;;0.30;;
9418;SDS011;4748;50.802;7.132;2023-02-01T15:00:26;6.47;;;0.50;;
9418;SDS011;4748;50.802;7.132;2023-02-01T15:02:55;3.40;;;0.50;;
9418;SDS011;4748;50.802;7.132;2023-02-01T15:05:40;2.80;;;0.30;;
9418;SDS011;4748;50.802;7.132;2023-02-01T15:08:15;3.30;;;0.53;;
9418;SDS011;4748;50.802;7.132;2023-02-01T15:10:44;4.83;;;0.20;;
9418;SDS011;4748;50.802;7.132;2023-02-01T15:13:18;2.00;;;0.50;;
9418;SDS011;4748;50.802;7.132;2023-02-01T15:16:21;4.50;;;0.83;;
9418;SDS011;4748;50.802;7.132;2023-02-01T15:18:40;4.67;;;0.50;;
9418;SDS011;4748;50.802;7.132;2023-02-01T15:21:14;3.40;;;1.10;;
9418;SDS011;4748;50.802;7.132;2023-02-01T15:23:42;4.90;;;0.50;;
9418;SDS011;4748;50.802;7.132;2023-02-01T15:26:07;14.77;;;0.73;;
9418;SDS011;4748;50.802;7.132;2023-02-01T15:28:33;2.77;;;1.30;;
9418;SDS011;4748;50.802;7.132;2023-02-01T15:31:00;0.30;;;0.30;;
9418;SDS011;4748;50.802;7.132;2023-02-01T15:33:27;0.67;;;0.20;;
9418;SDS011;4748;50.802;7.132;2023-02-01T15:38:33;1.10;;;0.47;;
9418;SDS011;4748;50.802;7.132;2023-02-01T15:41:16;3.30;;;0.73;;
9418;SDS011;4748;50.802;7.132;2023-02-01T15:46:35;1.53;;;0.30;;
9418;SDS011;4748;50.802;7.132;2023-02-01T15:49:03;5.33;;;0.47;;
9418;SDS011;4748;50.802;7.132;2023-02-01T15:51:31;5.20;;;0.70;;
9418;SDS011;4748;50.802;7.132;2023-02-01T15:54:01;1.00;;;0.50;;
9418;SDS011;4748;50.802;7.132;2023-02-01T15:56:33;0.10;;;0.10;;
9418;SDS011;4748;50.802;7.132;2023-02-01T15:59:01;2.10;;;0.30;;
9418;SDS011;4748;50.802;7.132;2023-02-01T16:01:29;1.20;;;0.40;;
9418;SDS011;4748;50.802;7.132;2023-02-01T16:04:10;7.40;;;0.60;;
9418;SDS011;4748;50.802;7.132;2023-02-01T16:09:18;0.87;;;0.13;;
9418;SDS011;4748;50.802;7.132;2023-02-01T16:11:56;0.20;;;0.10;;
9418;SDS011;4748;50.802;7.132;2023-02-01T16:14:23;12.73;;;0.83;;
9418;SDS011;4748;50.802;7.132;2023-02-01T16:16:49;4.10;;;0.50;;
9418;SDS011;4748;50.802;7.132;2023-02-01T16:19:15;0.40;;;0.40;;
9418;SDS011;4748;50.802;7.132;2023-02-01T16:21:41;2.47;;;0.33;;
9418;SDS011;4748;50.802;7.132;2023-02-01T16:24:06;4.23;;;0.60;;
9418;SDS011;4748;50.802;7.132;2023-02-01T16:26:32;0.37;;;0.37;;
9418;SDS011;4748;50.802;7.132;2023-02-01T16:28:59;3.53;;;0.33;;
9418;SDS011;4748;50.802;7.132;2023-02-01T16:31:28;2.23;;;0.20;;
9418;SDS011;4748;50.802;7.132;2023-02-01T16:33:55;2.03;;;0.20;;
9418;SDS011;4748;50.802;7.132;2023-02-01T16:36:21;10.77;;;0.53;;
9418;SDS011;4748;50.802;7.132;2023-02-01T16:38:47;2.33;;;0.50;;
9418;SDS011;4748;50.802;7.132;2023-02-01T16:41:17;6.37;;;0.50;;
9418;SDS011;4748;50.802;7.132;2023-02-01T16:43:43;3.80;;;0.60;;
9418;SDS011;4748;50.802;7.132;2023-02-01T16:46:13;5.70;;;1.00;;
9418;SDS011;4748;50.802;7.132;2023-02-01T16:48:41;1.13;;;1.03;;
9418;SDS011;4748;50.802;7.132;2023-02-01T16:51:11;2.67;;;0.60;;
9418;SDS011;4748;50.802;7.132;2023-02-01T16:53:38;6.83;;;1.40;;
9418;SDS011;4748;50.802;7.132;2023-02-01T16:56:14;5.07;;;1.00;;
9418;SDS011;4748;50.802;7.132;2023-02-01T16:58:44;1.10;;;0.47;;
9418;SDS011;4748;50.802;7.132;2023-02-01T17:01:11;2.37;;;0.50;;
9418;SDS011;4748;50.802;7.132;2023-02-01T17:03:43;4.33;;;0.57;;
9418;SDS011;4748;50.802;7.132;2023-02-01T17:06:10;1.50;;;0.50;;
9418;SDS011;4748;50.802;7.132;2023-02-01T17:08:39;4.57;;;0.70;;
9418;SDS011;4748;50.802;7.132;2023-02-01T17:11:07;4.27;;;1.13;;
9418;SDS011;4748;50.802;7.132;2023-02-01T17:13:34;1.63;;;1.27;;
9418;SDS011;4748;50.802;7.132;2023-02-01T17:16:00;3.80;;;1.63;;
9418;SDS011;4748;50.802;7.132;2023-02-01T17:18:28;6.90;;;0.77;;
9418;SDS011;4748;50.802;7.132;2023-02-01T17:20:59;2.87;;;1.00;;
9418;SDS011;4748;50.802;7.132;2023-02-01T17:23:26;0.87;;;0.53;;
9418;SDS011;4748;50.802;7.132;2023-02-01T17:25:53;8.60;;;0.67;;
9418;SDS011;4748;50.802;7.132;2023-02-01T17:28:19;2.07;;;0.73;;
9418;SDS011;4748;50.802;7.132;2023-02-01T17:30:45;1.47;;;0.70;;
9418;SDS011;4748;50.802;7.132;2023-02-01T17:33:15;7.20;;;0.70;;
9418;SDS011;4748;50.802;7.132;2023-02-01T17:35:41;2.03;;;0.93;;
9418;SDS011;4748;50.802;7.132;2023-02-01T17:38:09;1.90;;;0.83;;
9418;SDS011;4748;50.802;7.132;2023-02-01T17:40:36;6.70;;;0.90;;
9418;SDS011;4748;50.802;7.132;2023-02-01T17:43:02;7.77;;;0.57;;
9418;SDS011;4748;50.802;7.132;2023-02-01T17:45:35;1.07;;;1.07;;
9418;SDS011;4748;50.802;7.132;2023-02-01T17:48:05;2.83;;;0.57;;
9418;SDS011;4748;50.802;7.132;2023-02-01T17:50:31;1.93;;;0.93;;
9418;SDS011;4748;50.802;7.132;2023-02-01T17:53:00;1.90;;;1.07;;